sensor_id;sensor_type;location;lat;lon;timestamp;temperature;humidity
7720;DHT22;3902;49.474;8.616;2022-10-16T00:01:45;17.00;99.90
7720;DHT22;3902;49.474;8.616;2022-10-16T00:04:11;17.00;99.90
7720;DHT22;3902;49.474;8.616;2022-10-16T00:06:37;17.00;99.90
7720;DHT22;3902;49.474;8.616;2022-10-16T00:09:03;17.00;99.90
7720;DHT22;3902;49.474;8.616;2022-10-16T00:11:34;17.00;99.90
7720;DHT22;3902;49.474;8.616;2022-10-16T00:14:03;17.00;99.90
7720;DHT22;3902;49.474;8.616;2022-10-16T00:16:29;17.00;99.90
7720;DHT22;3902;49.474;8.616;2022-10-16T00:18:55;17.00;99.90
7720;DHT22;3902;49.474;8.616;2022-10-16T00:21:23;17.00;99.90
7720;DHT22;3902;49.474;8.616;2022-10-16T00:23:54;17.00;99.90
7720;DHT22;3902;49.474;8.616;2022-10-16T00:26:20;17.00;99.90
7720;DHT22;3902;49.474;8.616;2022-10-16T00:28:48;17.00;99.90
7720;DHT22;3902;49.474;8.616;2022-10-16T00:31:14;17.00;99.90
7720;DHT22;3902;49.474;8.616;2022-10-16T00:33:40;17.00;99.90
7720;DHT22;3902;49.474;8.616;2022-10-16T00:36:07;17.00;99.90
7720;DHT22;3902;49.474;8.616;2022-10-16T00:38:33;17.00;99.90
7720;DHT22;3902;49.474;8.616;2022-10-16T00:40:59;17.00;99.90
7720;DHT22;3902;49.474;8.616;2022-10-16T00:43:41;17.00;99.90
7720;DHT22;3902;49.474;8.616;2022-10-16T00:46:28;17.00;99.90
7720;DHT22;3902;49.474;8.616;2022-10-16T00:49:17;17.00;99.90
7720;DHT22;3902;49.474;8.616;2022-10-16T00:51:48;17.00;99.90
7720;DHT22;3902;49.474;8.616;2022-10-16T00:54:21;17.00;99.90
7720;DHT22;3902;49.474;8.616;2022-10-16T00:56:48;16.90;99.90
7720;DHT22;3902;49.474;8.616;2022-10-16T00:59:19;16.90;99.90
7720;DHT22;3902;49.474;8.616;2022-10-16T01:01:45;16.90;99.90
7720;DHT22;3902;49.474;8.616;2022-10-16T01:04:11;16.90;99.90
7720;DHT22;3902;49.474;8.616;2022-10-16T01:07:09;16.90;99.90
7720;DHT22;3902;49.474;8.616;2022-10-16T01:12:48;16.90;99.90
7720;DHT22;3902;49.474;8.616;2022-10-16T01:21:02;16.90;99.90
7720;DHT22;3902;49.474;8.616;2022-10-16T01:26:14;16.90;99.90
7720;DHT22;3902;49.474;8.616;2022-10-16T01:29:06;16.90;99.90
7720;DHT22;3902;49.474;8.616;2022-10-16T01:31:36;16.90;99.90
7720;DHT22;3902;49.474;8.616;2022-10-16T01:34:18;16.90;99.90
7720;DHT22;3902;49.474;8.616;2022-10-16T01:36:52;16.90;99.90
7720;DHT22;3902;49.474;8.616;2022-10-16T01:39:21;16.90;99.90
7720;DHT22;3902;49.474;8.616;2022-10-16T01:41:54;16.90;99.90
7720;DHT22;3902;49.474;8.616;2022-10-16T01:44:22;16.90;99.90
7720;DHT22;3902;49.474;8.616;2022-10-16T01:46:51;16.90;99.90
7720;DHT22;3902;49.474;8.616;2022-10-16T01:49:18;16.90;99.90
7720;DHT22;3902;49.474;8.616;2022-10-16T01:51:47;16.90;99.90
7720;DHT22;3902;49.474;8.616;2022-10-16T01:54:16;16.90;99.90
7720;DHT22;3902;49.474;8.616;2022-10-16T01:56:45;16.90;99.90
7720;DHT22;3902;49.474;8.616;2022-10-16T01:59:13;16.90;99.90
7720;DHT22;3902;49.474;8.616;2022-10-16T02:01:45;16.90;99.90
7720;DHT22;3902;49.474;8.616;2022-10-16T02:04:29;16.90;99.90
7720;DHT22;3902;49.474;8.616;2022-10-16T02:06:55;16.90;99.90
7720;DHT22;3902;49.474;8.616;2022-10-16T02:09:21;16.90;99.90
7720;DHT22;3902;49.474;8.616;2022-10-16T02:11:47;16.90;99.90
7720;DHT22;3902;49.474;8.616;2022-10-16T02:14:14;16.90;99.90
7720;DHT22;3902;49.474;8.616;2022-10-16T02:16:44;16.90;99.90
7720;DHT22;3902;49.474;8.616;2022-10-16T02:19:12;16.90;99.90
7720;DHT22;3902;49.474;8.616;2022-10-16T02:21:51;16.90;99.90
7720;DHT22;3902;49.474;8.616;2022-10-16T02:24:39;16.90;99.90
7720;DHT22;3902;49.474;8.616;2022-10-16T02:30:13;16.90;99.90
7720;DHT22;3902;49.474;8.616;2022-10-16T02:32:42;16.90;99.90
7720;DHT22;3902;49.474;8.616;2022-10-16T02:35:08;16.90;99.90
7720;DHT22;3902;49.474;8.616;2022-10-16T02:37:34;16.90;99.90
7720;DHT22;3902;49.474;8.616;2022-10-16T02:40:01;16.90;99.90
7720;DHT22;3902;49.474;8.616;2022-10-16T02:42:39;16.90;99.90
7720;DHT22;3902;49.474;8.616;2022-10-16T02:45:06;16.90;99.90
7720;DHT22;3902;49.474;8.616;2022-10-16T02:47:32;16.90;99.90
7720;DHT22;3902;49.474;8.616;2022-10-16T02:49:57;16.90;99.90
7720;DHT22;3902;49.474;8.616;2022-10-16T02:52:23;16.90;99.90
7720;DHT22;3902;49.474;8.616;2022-10-16T02:54:49;16.90;99.90
7720;DHT22;3902;49.474;8.616;2022-10-16T02:57:14;16.90;99.90
7720;DHT22;3902;49.474;8.616;2022-10-16T02:59:40;16.90;99.90
7720;DHT22;3902;49.474;8.616;2022-10-16T03:02:05;16.90;99.90
7720;DHT22;3902;49.474;8.616;2022-10-16T03:04:31;16.90;99.90
7720;DHT22;3902;49.474;8.616;2022-10-16T03:06:56;16.90;99.90
7720;DHT22;3902;49.474;8.616;2022-10-16T03:09:22;16.90;99.90
7720;DHT22;3902;49.474;8.616;2022-10-16T03:11:47;16.90;99.90
7720;DHT22;3902;49.474;8.616;2022-10-16T03:14:13;16.90;99.90
7720;DHT22;3902;49.474;8.616;2022-10-16T03:16:38;16.90;99.90
7720;DHT22;3902;49.474;8.616;2022-10-16T03:19:04;16.90;99.90
7720;DHT22;3902;49.474;8.616;2022-10-16T03:21:29;16.90;99.90
7720;DHT22;3902;49.474;8.616;2022-10-16T03:23:55;16.90;99.90
7720;DHT22;3902;49.474;8.616;2022-10-16T03:26:20;16.90;99.90
7720;DHT22;3902;49.474;8.616;2022-10-16T03:28:46;16.90;99.90
7720;DHT22;3902;49.474;8.616;2022-10-16T03:31:12;16.90;99.90
7720;DHT22;3902;49.474;8.616;2022-10-16T03:33:38;16.90;99.90
7720;DHT22;3902;49.474;8.616;2022-10-16T03:36:03;16.90;99.90
7720;DHT22;3902;49.474;8.616;2022-10-16T03:38:29;16.90;99.90
7720;DHT22;3902;49.474;8.616;2022-10-16T03:40:55;16.90;99.90
7720;DHT22;3902;49.474;8.616;2022-10-16T03:43:20;16.90;99.90
7720;DHT22;3902;49.474;8.616;2022-10-16T03:45:46;16.90;99.90
7720;DHT22;3902;49.474;8.616;2022-10-16T03:48:11;16.90;99.90
7720;DHT22;3902;49.474;8.616;2022-10-16T03:50:37;16.90;99.90
7720;DHT22;3902;49.474;8.616;2022-10-16T03:53:03;16.90;99.90
7720;DHT22;3902;49.474;8.616;2022-10-16T03:55:29;16.90;99.90
7720;DHT22;3902;49.474;8.616;2022-10-16T03:57:54;16.90;99.90
7720;DHT22;3902;49.474;8.616;2022-10-16T04:00:20;16.90;99.90
7720;DHT22;3902;49.474;8.616;2022-10-16T04:02:45;16.90;99.90
7720;DHT22;3902;49.474;8.616;2022-10-16T04:05:11;16.90;99.90
7720;DHT22;3902;49.474;8.616;2022-10-16T04:07:36;16.90;99.90
7720;DHT22;3902;49.474;8.616;2022-10-16T04:10:02;16.90;99.90
7720;DHT22;3902;49.474;8.616;2022-10-16T04:12:28;16.90;99.90
7720;DHT22;3902;49.474;8.616;2022-10-16T04:14:53;16.90;99.90
7720;DHT22;3902;49.474;8.616;2022-10-16T04:17:19;16.90;99.90
7720;DHT22;3902;49.474;8.616;2022-10-16T04:19:44;16.90;99.90
7720;DHT22;3902;49.474;8.616;2022-10-16T04:22:10;16.90;99.90
7720;DHT22;3902;49.474;8.616;2022-10-16T04:24:35;16.90;99.90
7720;DHT22;3902;49.474;8.616;2022-10-16T04:27:01;16.90;99.90
7720;DHT22;3902;49.474;8.616;2022-10-16T04:29:26;16.90;99.90
7720;DHT22;3902;49.474;8.616;2022-10-16T04:31:52;16.90;99.90
7720;DHT22;3902;49.474;8.616;2022-10-16T04:34:17;16.90;99.90
7720;DHT22;3902;49.474;8.616;2022-10-16T04:36:43;16.90;99.90
7720;DHT22;3902;49.474;8.616;2022-10-16T04:39:08;16.90;99.90
7720;DHT22;3902;49.474;8.616;2022-10-16T04:41:34;16.90;99.90
7720;DHT22;3902;49.474;8.616;2022-10-16T04:43:59;16.90;99.90
7720;DHT22;3902;49.474;8.616;2022-10-16T04:46:25;16.90;99.90
7720;DHT22;3902;49.474;8.616;2022-10-16T04:48:50;16.90;99.90
7720;DHT22;3902;49.474;8.616;2022-10-16T04:51:16;16.90;99.90
7720;DHT22;3902;49.474;8.616;2022-10-16T04:53:41;16.90;99.90
7720;DHT22;3902;49.474;8.616;2022-10-16T04:56:07;16.90;99.90
7720;DHT22;3902;49.474;8.616;2022-10-16T04:58:32;16.90;99.90
7720;DHT22;3902;49.474;8.616;2022-10-16T05:00:58;16.90;99.90
7720;DHT22;3902;49.474;8.616;2022-10-16T05:03:24;16.90;99.90
7720;DHT22;3902;49.474;8.616;2022-10-16T05:05:49;16.90;99.90
7720;DHT22;3902;49.474;8.616;2022-10-16T05:08:15;16.80;99.90
7720;DHT22;3902;49.474;8.616;2022-10-16T05:10:42;16.80;99.90
7720;DHT22;3902;49.474;8.616;2022-10-16T05:13:08;16.80;99.90
7720;DHT22;3902;49.474;8.616;2022-10-16T05:15:33;16.80;99.90
7720;DHT22;3902;49.474;8.616;2022-10-16T05:17:59;16.80;99.90
7720;DHT22;3902;49.474;8.616;2022-10-16T05:20:24;16.80;99.90
7720;DHT22;3902;49.474;8.616;2022-10-16T05:22:50;16.80;99.90
7720;DHT22;3902;49.474;8.616;2022-10-16T05:25:16;16.80;99.90
7720;DHT22;3902;49.474;8.616;2022-10-16T05:27:41;16.80;99.90
7720;DHT22;3902;49.474;8.616;2022-10-16T05:30:07;16.80;99.90
7720;DHT22;3902;49.474;8.616;2022-10-16T05:32:33;16.80;99.90
7720;DHT22;3902;49.474;8.616;2022-10-16T05:34:58;16.80;99.90
7720;DHT22;3902;49.474;8.616;2022-10-16T05:37:25;16.80;99.90
7720;DHT22;3902;49.474;8.616;2022-10-16T05:39:52;16.70;99.90
7720;DHT22;3902;49.474;8.616;2022-10-16T05:42:18;16.70;99.90
7720;DHT22;3902;49.474;8.616;2022-10-16T05:44:44;16.70;99.90
7720;DHT22;3902;49.474;8.616;2022-10-16T05:47:09;16.70;99.90
7720;DHT22;3902;49.474;8.616;2022-10-16T05:49:36;16.70;99.90
7720;DHT22;3902;49.474;8.616;2022-10-16T05:52:01;16.80;99.90
7720;DHT22;3902;49.474;8.616;2022-10-16T05:54:27;16.70;99.90
7720;DHT22;3902;49.474;8.616;2022-10-16T05:56:52;16.70;99.90
7720;DHT22;3902;49.474;8.616;2022-10-16T05:59:18;16.70;99.90
7720;DHT22;3902;49.474;8.616;2022-10-16T06:01:43;16.70;99.90
7720;DHT22;3902;49.474;8.616;2022-10-16T06:04:09;16.70;99.90
7720;DHT22;3902;49.474;8.616;2022-10-16T06:06:35;16.70;99.90
7720;DHT22;3902;49.474;8.616;2022-10-16T06:09:02;16.70;99.90
7720;DHT22;3902;49.474;8.616;2022-10-16T06:11:30;16.70;99.90
7720;DHT22;3902;49.474;8.616;2022-10-16T06:13:58;16.80;99.90
7720;DHT22;3902;49.474;8.616;2022-10-16T06:16:26;16.80;99.90
7720;DHT22;3902;49.474;8.616;2022-10-16T06:18:53;16.80;99.90
7720;DHT22;3902;49.474;8.616;2022-10-16T06:21:21;16.80;99.90
7720;DHT22;3902;49.474;8.616;2022-10-16T06:23:47;16.80;99.90
7720;DHT22;3902;49.474;8.616;2022-10-16T06:26:15;16.80;99.90
7720;DHT22;3902;49.474;8.616;2022-10-16T06:28:41;16.80;99.90
7720;DHT22;3902;49.474;8.616;2022-10-16T06:31:08;16.80;99.90
7720;DHT22;3902;49.474;8.616;2022-10-16T06:33:35;16.80;99.90
7720;DHT22;3902;49.474;8.616;2022-10-16T06:36:05;16.80;99.90
7720;DHT22;3902;49.474;8.616;2022-10-16T06:38:31;16.80;99.90
7720;DHT22;3902;49.474;8.616;2022-10-16T06:40:58;16.80;99.90
7720;DHT22;3902;49.474;8.616;2022-10-16T06:43:24;16.80;99.90
7720;DHT22;3902;49.474;8.616;2022-10-16T06:45:56;16.80;99.90
7720;DHT22;3902;49.474;8.616;2022-10-16T06:48:22;16.90;99.90
7720;DHT22;3902;49.474;8.616;2022-10-16T06:50:59;16.80;99.90
7720;DHT22;3902;49.474;8.616;2022-10-16T06:53:25;16.80;99.90
7720;DHT22;3902;49.474;8.616;2022-10-16T06:55:51;16.80;99.90
7720;DHT22;3902;49.474;8.616;2022-10-16T06:58:16;16.90;99.90
7720;DHT22;3902;49.474;8.616;2022-10-16T07:00:42;16.90;99.90
7720;DHT22;3902;49.474;8.616;2022-10-16T07:03:07;16.90;99.90
7720;DHT22;3902;49.474;8.616;2022-10-16T07:05:37;16.90;99.90
7720;DHT22;3902;49.474;8.616;2022-10-16T07:08:03;16.90;99.90
7720;DHT22;3902;49.474;8.616;2022-10-16T07:10:30;16.90;99.90
7720;DHT22;3902;49.474;8.616;2022-10-16T07:12:56;16.90;99.90
7720;DHT22;3902;49.474;8.616;2022-10-16T07:15:22;16.90;99.90
7720;DHT22;3902;49.474;8.616;2022-10-16T07:17:47;16.90;99.90
7720;DHT22;3902;49.474;8.616;2022-10-16T07:20:13;16.90;99.90
7720;DHT22;3902;49.474;8.616;2022-10-16T07:22:38;17.00;99.90
7720;DHT22;3902;49.474;8.616;2022-10-16T07:25:04;17.00;99.90
7720;DHT22;3902;49.474;8.616;2022-10-16T07:27:30;17.00;99.90
7720;DHT22;3902;49.474;8.616;2022-10-16T07:29:55;17.00;99.90
7720;DHT22;3902;49.474;8.616;2022-10-16T07:32:21;17.00;99.90
7720;DHT22;3902;49.474;8.616;2022-10-16T07:34:46;17.10;99.90
7720;DHT22;3902;49.474;8.616;2022-10-16T07:37:12;17.10;99.90
7720;DHT22;3902;49.474;8.616;2022-10-16T07:39:37;17.10;99.90
7720;DHT22;3902;49.474;8.616;2022-10-16T07:42:03;17.10;99.90
7720;DHT22;3902;49.474;8.616;2022-10-16T07:44:28;17.20;99.90
7720;DHT22;3902;49.474;8.616;2022-10-16T07:46:54;17.20;99.90
7720;DHT22;3902;49.474;8.616;2022-10-16T07:49:19;17.20;99.90
7720;DHT22;3902;49.474;8.616;2022-10-16T07:51:45;17.20;99.90
7720;DHT22;3902;49.474;8.616;2022-10-16T07:54:10;17.20;99.90
7720;DHT22;3902;49.474;8.616;2022-10-16T07:56:36;17.20;99.90
7720;DHT22;3902;49.474;8.616;2022-10-16T07:59:01;17.30;99.90
7720;DHT22;3902;49.474;8.616;2022-10-16T08:01:27;17.30;99.90
7720;DHT22;3902;49.474;8.616;2022-10-16T08:03:52;17.40;99.90
7720;DHT22;3902;49.474;8.616;2022-10-16T08:06:20;17.40;99.90
7720;DHT22;3902;49.474;8.616;2022-10-16T08:08:46;17.40;99.90
7720;DHT22;3902;49.474;8.616;2022-10-16T08:11:12;17.50;99.90
7720;DHT22;3902;49.474;8.616;2022-10-16T08:13:39;17.50;99.90
7720;DHT22;3902;49.474;8.616;2022-10-16T08:16:05;17.50;99.90
7720;DHT22;3902;49.474;8.616;2022-10-16T08:18:35;17.50;99.90
7720;DHT22;3902;49.474;8.616;2022-10-16T08:21:01;17.60;99.90
7720;DHT22;3902;49.474;8.616;2022-10-16T08:23:27;17.60;99.90
7720;DHT22;3902;49.474;8.616;2022-10-16T08:25:54;17.60;99.90
7720;DHT22;3902;49.474;8.616;2022-10-16T08:28:20;17.60;99.90
7720;DHT22;3902;49.474;8.616;2022-10-16T08:30:45;17.60;99.90
7720;DHT22;3902;49.474;8.616;2022-10-16T08:33:11;17.60;99.90
7720;DHT22;3902;49.474;8.616;2022-10-16T08:35:36;17.70;99.90
7720;DHT22;3902;49.474;8.616;2022-10-16T08:38:06;17.70;99.90
7720;DHT22;3902;49.474;8.616;2022-10-16T08:40:34;17.70;99.90
7720;DHT22;3902;49.474;8.616;2022-10-16T08:48:48;17.80;99.90
7720;DHT22;3902;49.474;8.616;2022-10-16T08:51:23;17.80;99.90
7720;DHT22;3902;49.474;8.616;2022-10-16T08:53:56;17.80;99.90
7720;DHT22;3902;49.474;8.616;2022-10-16T08:56:23;17.80;99.90
7720;DHT22;3902;49.474;8.616;2022-10-16T08:58:50;17.90;99.90
7720;DHT22;3902;49.474;8.616;2022-10-16T09:01:20;17.90;99.90
7720;DHT22;3902;49.474;8.616;2022-10-16T09:04:00;17.90;99.90
7720;DHT22;3902;49.474;8.616;2022-10-16T09:06:55;17.90;99.90
7720;DHT22;3902;49.474;8.616;2022-10-16T09:09:32;17.90;99.90
7720;DHT22;3902;49.474;8.616;2022-10-16T09:15:15;17.90;99.90
7720;DHT22;3902;49.474;8.616;2022-10-16T09:18:12;17.90;99.90
7720;DHT22;3902;49.474;8.616;2022-10-16T09:20:49;18.00;99.90
7720;DHT22;3902;49.474;8.616;2022-10-16T09:23:26;18.10;99.90
7720;DHT22;3902;49.474;8.616;2022-10-16T09:25:53;18.20;99.90
7720;DHT22;3902;49.474;8.616;2022-10-16T09:28:19;18.30;99.90
7720;DHT22;3902;49.474;8.616;2022-10-16T09:30:46;18.40;99.90
7720;DHT22;3902;49.474;8.616;2022-10-16T09:33:13;18.50;99.90
7720;DHT22;3902;49.474;8.616;2022-10-16T09:35:42;18.70;99.90
7720;DHT22;3902;49.474;8.616;2022-10-16T09:38:08;18.80;99.90
7720;DHT22;3902;49.474;8.616;2022-10-16T09:40:38;18.90;99.90
7720;DHT22;3902;49.474;8.616;2022-10-16T09:43:39;19.00;99.90
7720;DHT22;3902;49.474;8.616;2022-10-16T09:46:21;19.10;99.90
7720;DHT22;3902;49.474;8.616;2022-10-16T09:48:49;19.20;99.90
7720;DHT22;3902;49.474;8.616;2022-10-16T09:51:20;19.30;99.90
7720;DHT22;3902;49.474;8.616;2022-10-16T09:53:47;19.40;99.90
7720;DHT22;3902;49.474;8.616;2022-10-16T09:56:22;19.40;99.90
7720;DHT22;3902;49.474;8.616;2022-10-16T09:58:57;19.40;99.90
7720;DHT22;3902;49.474;8.616;2022-10-16T10:01:43;19.40;99.90
7720;DHT22;3902;49.474;8.616;2022-10-16T10:04:10;19.40;99.90
7720;DHT22;3902;49.474;8.616;2022-10-16T10:06:40;19.40;99.90
7720;DHT22;3902;49.474;8.616;2022-10-16T10:11:52;19.50;99.90
7720;DHT22;3902;49.474;8.616;2022-10-16T10:16:47;19.60;99.90
7720;DHT22;3902;49.474;8.616;2022-10-16T10:19:16;19.60;99.90
7720;DHT22;3902;49.474;8.616;2022-10-16T10:21:41;19.70;99.90
7720;DHT22;3902;49.474;8.616;2022-10-16T10:24:12;19.80;99.90
7720;DHT22;3902;49.474;8.616;2022-10-16T10:26:41;19.90;99.90
7720;DHT22;3902;49.474;8.616;2022-10-16T10:34:51;20.10;99.90
7720;DHT22;3902;49.474;8.616;2022-10-16T10:37:31;20.20;99.90
7720;DHT22;3902;49.474;8.616;2022-10-16T10:42:53;20.50;99.90
7720;DHT22;3902;49.474;8.616;2022-10-16T10:45:27;20.80;99.90
7720;DHT22;3902;49.474;8.616;2022-10-16T10:48:21;21.30;99.90
7720;DHT22;3902;49.474;8.616;2022-10-16T10:53:46;22.60;99.90
7720;DHT22;3902;49.474;8.616;2022-10-16T10:56:43;23.30;99.90
7720;DHT22;3902;49.474;8.616;2022-10-16T11:02:42;25.20;99.90
7720;DHT22;3902;49.474;8.616;2022-10-16T11:05:33;26.40;99.90
7720;DHT22;3902;49.474;8.616;2022-10-16T11:08:09;27.50;99.90
7720;DHT22;3902;49.474;8.616;2022-10-16T11:11:28;28.30;99.90
7720;DHT22;3902;49.474;8.616;2022-10-16T11:14:19;29.20;99.90
7720;DHT22;3902;49.474;8.616;2022-10-16T11:16:59;29.90;99.90
7720;DHT22;3902;49.474;8.616;2022-10-16T11:19:49;30.30;99.90
7720;DHT22;3902;49.474;8.616;2022-10-16T11:22:39;30.80;99.90
7720;DHT22;3902;49.474;8.616;2022-10-16T11:25:20;31.40;99.90
7720;DHT22;3902;49.474;8.616;2022-10-16T11:28:19;31.50;99.90
7720;DHT22;3902;49.474;8.616;2022-10-16T11:30:49;31.70;99.90
7720;DHT22;3902;49.474;8.616;2022-10-16T11:36:17;31.60;99.90
7720;DHT22;3902;49.474;8.616;2022-10-16T11:38:53;31.70;99.90
7720;DHT22;3902;49.474;8.616;2022-10-16T11:47:23;32.20;99.90
7720;DHT22;3902;49.474;8.616;2022-10-16T11:49:55;32.60;99.90
7720;DHT22;3902;49.474;8.616;2022-10-16T11:52:41;32.80;99.90
7720;DHT22;3902;49.474;8.616;2022-10-16T11:55:37;33.20;99.90
7720;DHT22;3902;49.474;8.616;2022-10-16T11:58:26;32.80;99.90
7720;DHT22;3902;49.474;8.616;2022-10-16T12:00:58;32.10;99.90
7720;DHT22;3902;49.474;8.616;2022-10-16T12:09:31;30.00;99.90
7720;DHT22;3902;49.474;8.616;2022-10-16T12:11:58;29.10;99.90
7720;DHT22;3902;49.474;8.616;2022-10-16T12:14:37;28.60;99.90
7720;DHT22;3902;49.474;8.616;2022-10-16T12:17:22;28.20;99.90
7720;DHT22;3902;49.474;8.616;2022-10-16T12:19:59;27.60;99.90
7720;DHT22;3902;49.474;8.616;2022-10-16T12:22:29;27.10;99.90
7720;DHT22;3902;49.474;8.616;2022-10-16T12:24:55;26.70;99.90
7720;DHT22;3902;49.474;8.616;2022-10-16T12:27:29;26.30;99.90
7720;DHT22;3902;49.474;8.616;2022-10-16T12:29:57;26.10;99.90
7720;DHT22;3902;49.474;8.616;2022-10-16T12:32:33;25.80;99.90
7720;DHT22;3902;49.474;8.616;2022-10-16T12:35:00;25.60;99.90
7720;DHT22;3902;49.474;8.616;2022-10-16T12:37:34;25.20;99.90
7720;DHT22;3902;49.474;8.616;2022-10-16T12:40:15;25.10;99.90
7720;DHT22;3902;49.474;8.616;2022-10-16T12:42:41;24.70;99.90
7720;DHT22;3902;49.474;8.616;2022-10-16T12:45:31;24.60;99.90
7720;DHT22;3902;49.474;8.616;2022-10-16T12:47:59;24.50;99.90
7720;DHT22;3902;49.474;8.616;2022-10-16T12:50:35;24.50;99.90
7720;DHT22;3902;49.474;8.616;2022-10-16T12:53:04;24.30;99.90
7720;DHT22;3902;49.474;8.616;2022-10-16T12:55:57;24.20;99.90
7720;DHT22;3902;49.474;8.616;2022-10-16T13:01:37;23.90;99.90
7720;DHT22;3902;49.474;8.616;2022-10-16T13:04:40;23.90;99.90
7720;DHT22;3902;49.474;8.616;2022-10-16T13:07:23;24.10;99.90
7720;DHT22;3902;49.474;8.616;2022-10-16T13:10:46;24.20;99.90
7720;DHT22;3902;49.474;8.616;2022-10-16T13:24:23;25.70;99.90
7720;DHT22;3902;49.474;8.616;2022-10-16T13:27:07;25.50;99.90
7720;DHT22;3902;49.474;8.616;2022-10-16T13:29:34;25.20;99.90
7720;DHT22;3902;49.474;8.616;2022-10-16T13:32:01;25.00;99.90
7720;DHT22;3902;49.474;8.616;2022-10-16T13:34:32;24.70;99.90
7720;DHT22;3902;49.474;8.616;2022-10-16T13:36:58;24.50;99.90
7720;DHT22;3902;49.474;8.616;2022-10-16T13:39:28;24.20;99.90
7720;DHT22;3902;49.474;8.616;2022-10-16T13:44:51;23.80;99.90
7720;DHT22;3902;49.474;8.616;2022-10-16T13:47:20;23.60;99.90
7720;DHT22;3902;49.474;8.616;2022-10-16T13:49:47;23.50;99.90
7720;DHT22;3902;49.474;8.616;2022-10-16T13:52:23;23.30;99.90
7720;DHT22;3902;49.474;8.616;2022-10-16T13:54:49;23.10;99.90
7720;DHT22;3902;49.474;8.616;2022-10-16T13:57:15;23.00;99.90
7720;DHT22;3902;49.474;8.616;2022-10-16T13:59:41;23.00;99.90
7720;DHT22;3902;49.474;8.616;2022-10-16T14:02:22;22.90;99.90
7720;DHT22;3902;49.474;8.616;2022-10-16T14:04:51;22.90;99.90
7720;DHT22;3902;49.474;8.616;2022-10-16T14:07:31;22.80;99.90
7720;DHT22;3902;49.474;8.616;2022-10-16T14:10:05;22.80;99.90
7720;DHT22;3902;49.474;8.616;2022-10-16T14:12:32;22.70;99.90
7720;DHT22;3902;49.474;8.616;2022-10-16T14:14:58;22.60;99.90
7720;DHT22;3902;49.474;8.616;2022-10-16T14:19:54;22.50;99.90
7720;DHT22;3902;49.474;8.616;2022-10-16T14:22:30;22.40;99.90
7720;DHT22;3902;49.474;8.616;2022-10-16T14:24:57;22.40;99.90
7720;DHT22;3902;49.474;8.616;2022-10-16T14:27:31;22.30;99.90
7720;DHT22;3902;49.474;8.616;2022-10-16T14:30:19;22.30;99.90
7720;DHT22;3902;49.474;8.616;2022-10-16T14:33:02;22.20;99.90
7720;DHT22;3902;49.474;8.616;2022-10-16T14:35:34;22.10;99.90
7720;DHT22;3902;49.474;8.616;2022-10-16T14:38:02;22.00;99.90
7720;DHT22;3902;49.474;8.616;2022-10-16T14:40:33;21.90;99.90
7720;DHT22;3902;49.474;8.616;2022-10-16T14:43:01;21.90;99.90
7720;DHT22;3902;49.474;8.616;2022-10-16T14:45:30;21.80;99.90
7720;DHT22;3902;49.474;8.616;2022-10-16T14:47:58;21.80;99.90
7720;DHT22;3902;49.474;8.616;2022-10-16T14:50:25;21.80;99.90
7720;DHT22;3902;49.474;8.616;2022-10-16T14:52:51;21.70;99.90
7720;DHT22;3902;49.474;8.616;2022-10-16T14:55:17;21.70;99.90
7720;DHT22;3902;49.474;8.616;2022-10-16T14:57:44;21.70;99.90
7720;DHT22;3902;49.474;8.616;2022-10-16T15:00:22;21.70;99.90
7720;DHT22;3902;49.474;8.616;2022-10-16T15:02:49;21.70;99.90
7720;DHT22;3902;49.474;8.616;2022-10-16T15:05:16;21.60;99.90
7720;DHT22;3902;49.474;8.616;2022-10-16T15:07:42;21.60;99.90
7720;DHT22;3902;49.474;8.616;2022-10-16T15:10:08;21.60;99.90
7720;DHT22;3902;49.474;8.616;2022-10-16T15:12:34;21.70;99.90
7720;DHT22;3902;49.474;8.616;2022-10-16T15:14:59;21.70;99.90
7720;DHT22;3902;49.474;8.616;2022-10-16T15:17:25;21.70;99.90
7720;DHT22;3902;49.474;8.616;2022-10-16T15:19:50;21.70;99.90
7720;DHT22;3902;49.474;8.616;2022-10-16T15:22:16;21.70;99.90
7720;DHT22;3902;49.474;8.616;2022-10-16T15:24:42;21.80;99.90
7720;DHT22;3902;49.474;8.616;2022-10-16T15:27:08;21.80;99.90
7720;DHT22;3902;49.474;8.616;2022-10-16T15:29:33;21.80;99.90
7720;DHT22;3902;49.474;8.616;2022-10-16T15:31:59;21.80;99.90
7720;DHT22;3902;49.474;8.616;2022-10-16T15:34:24;21.80;99.90
7720;DHT22;3902;49.474;8.616;2022-10-16T15:36:50;21.70;99.90
7720;DHT22;3902;49.474;8.616;2022-10-16T15:39:17;21.70;99.90
7720;DHT22;3902;49.474;8.616;2022-10-16T15:41:44;21.70;99.90
7720;DHT22;3902;49.474;8.616;2022-10-16T15:44:10;21.70;99.90
7720;DHT22;3902;49.474;8.616;2022-10-16T15:46:36;21.60;99.90
7720;DHT22;3902;49.474;8.616;2022-10-16T15:49:03;21.60;99.90
7720;DHT22;3902;49.474;8.616;2022-10-16T15:51:28;21.60;99.90
7720;DHT22;3902;49.474;8.616;2022-10-16T15:53:56;21.50;99.90
7720;DHT22;3902;49.474;8.616;2022-10-16T15:56:22;21.50;99.90
7720;DHT22;3902;49.474;8.616;2022-10-16T15:58:51;21.40;99.90
7720;DHT22;3902;49.474;8.616;2022-10-16T16:01:16;21.40;99.90
7720;DHT22;3902;49.474;8.616;2022-10-16T16:03:42;21.40;99.90
7720;DHT22;3902;49.474;8.616;2022-10-16T16:06:09;21.40;99.90
7720;DHT22;3902;49.474;8.616;2022-10-16T16:08:35;21.30;99.90
7720;DHT22;3902;49.474;8.616;2022-10-16T16:11:14;21.20;99.90
7720;DHT22;3902;49.474;8.616;2022-10-16T16:13:41;21.20;99.90
7720;DHT22;3902;49.474;8.616;2022-10-16T16:16:12;21.20;99.90
7720;DHT22;3902;49.474;8.616;2022-10-16T16:18:38;21.10;99.90
7720;DHT22;3902;49.474;8.616;2022-10-16T16:21:04;21.10;99.90
7720;DHT22;3902;49.474;8.616;2022-10-16T16:23:30;21.00;99.90
7720;DHT22;3902;49.474;8.616;2022-10-16T16:26:29;20.90;99.90
7720;DHT22;3902;49.474;8.616;2022-10-16T16:29:01;20.90;99.90
7720;DHT22;3902;49.474;8.616;2022-10-16T16:31:28;20.80;99.90
7720;DHT22;3902;49.474;8.616;2022-10-16T16:33:54;20.70;99.90
7720;DHT22;3902;49.474;8.616;2022-10-16T16:36:21;20.70;99.90
7720;DHT22;3902;49.474;8.616;2022-10-16T16:38:46;20.60;99.90
7720;DHT22;3902;49.474;8.616;2022-10-16T16:41:30;20.50;99.90
7720;DHT22;3902;49.474;8.616;2022-10-16T16:44:02;20.50;99.90
7720;DHT22;3902;49.474;8.616;2022-10-16T16:46:28;20.40;99.90
7720;DHT22;3902;49.474;8.616;2022-10-16T16:48:53;20.30;99.90
7720;DHT22;3902;49.474;8.616;2022-10-16T16:51:21;20.30;99.90
7720;DHT22;3902;49.474;8.616;2022-10-16T16:53:49;20.20;99.90
7720;DHT22;3902;49.474;8.616;2022-10-16T16:56:15;20.20;99.90
7720;DHT22;3902;49.474;8.616;2022-10-16T16:58:43;20.10;99.90
7720;DHT22;3902;49.474;8.616;2022-10-16T17:01:10;20.00;99.90
7720;DHT22;3902;49.474;8.616;2022-10-16T17:03:36;20.00;99.90
7720;DHT22;3902;49.474;8.616;2022-10-16T17:06:07;19.90;99.90
7720;DHT22;3902;49.474;8.616;2022-10-16T17:08:36;19.90;99.90
7720;DHT22;3902;49.474;8.616;2022-10-16T17:11:03;19.80;99.90
7720;DHT22;3902;49.474;8.616;2022-10-16T17:13:31;19.70;99.90
7720;DHT22;3902;49.474;8.616;2022-10-16T17:15:59;19.70;99.90
7720;DHT22;3902;49.474;8.616;2022-10-16T17:18:25;19.60;99.90
7720;DHT22;3902;49.474;8.616;2022-10-16T17:20:51;19.50;99.90
7720;DHT22;3902;49.474;8.616;2022-10-16T17:23:20;19.50;99.90
7720;DHT22;3902;49.474;8.616;2022-10-16T17:25:46;19.50;99.90
7720;DHT22;3902;49.474;8.616;2022-10-16T17:28:12;19.40;99.90
7720;DHT22;3902;49.474;8.616;2022-10-16T17:30:39;19.30;99.90
7720;DHT22;3902;49.474;8.616;2022-10-16T17:33:05;19.30;99.90
7720;DHT22;3902;49.474;8.616;2022-10-16T17:35:41;19.30;99.90
7720;DHT22;3902;49.474;8.616;2022-10-16T17:38:08;19.20;99.90